Latest Weather Observations for Lucinda

IDQ60801

Issued at 7:02 am EST Sunday 23 July 2017 (issued every 30 minutes, with the page automatically refreshed every 10 minutes)

About weather observations | Map of weather stations | Latest weather observations for QLD | Other Formats
Station Details ID: 032141 Name: LUCINDA POINT Lat: -18.52 Lon: 146.39 Height: 10.0 m
Data from the previous 72 hours. | See also: Recent months at Lucinda
Date/Time
EST
Temp
°C
App
Temp
°C
Dew
Point
°C
Rel
Hum
%
Delta-T
°C
Wind Press
QNH
hPa
Press
MSL
hPa
Rain since
9am
mm
Dir  Spd
km/h
Gust
km/h
Spd
kts
Gust
kts
23/07:00am 20.2 19.9 16.4 79 2.3 SSW 13 17 7 9 1018.6 1018.6 0.0
23/06:30am 21.4 20.7 15.3 68 3.6 S 13 17 7 9 1018.2 1018.2 0.0
23/06:00am 21.3 21.4 15.4 69 3.5 S 9 13 5 7 1017.9 1017.9 0.0
23/05:30am 21.2 21.4 15.7 71 3.3 S 9 11 5 6 1017.7 1017.7 0.0
23/05:00am 21.2 21.5 16.0 72 3.1 S 9 13 5 7 1017.6 1017.6 0.0
23/04:30am 21.3 21.6 16.0 72 3.2 S 9 13 5 7 1017.6 1017.6 0.0
23/04:00am 21.4 20.9 15.0 67 3.8 SE 11 19 6 10 1017.6 1017.6 0.0
23/03:30am 21.5 21.0 15.8 70 3.4 SE 13 20 7 11 1017.7 1017.7 0.0
23/03:00am 21.5 21.3 15.8 70 3.4 SE 11 17 6 9 1017.8 1017.8 0.0
23/02:30am 21.6 21.1 15.9 70 3.4 SE 13 20 7 11 1018.1 1018.1 0.0
23/02:00am 21.6 21.5 16.1 71 3.3 SE 11 19 6 10 1018.3 1018.3 0.0
23/01:30am 21.6 21.2 16.1 71 3.3 SE 13 20 7 11 1018.4 1018.4 0.0
23/01:00am 21.6 21.2 16.1 71 3.3 ESE 13 20 7 11 1018.7 1018.7 0.0
23/12:30am 21.5 20.6 15.8 70 3.4 SE 15 22 8 12 1018.7 1018.7 0.0
23/12:00am 21.6 20.7 15.9 70 3.4 SE 15 24 8 13 1018.8 1018.8 0.0
 
Date/Time
EST
Temp
°C
App
Temp
°C
Dew
Point
°C
Rel
Hum
%
Delta-T
°C
Wind Press
QNH
hPa
Press
MSL
hPa
Rain since
9am
mm
Dir  Spd
km/h
Gust
km/h
Spd
kts
Gust
kts
22/11:30pm 21.7 20.4 15.8 69 3.5 ESE 17 26 9 14 1018.9 1018.9 0.0
22/11:00pm 21.9 21.1 16.0 69 3.5 SE 15 24 8 13 1019.1 1019.1 0.0
22/10:30pm 22.0 21.2 16.1 69 3.6 ESE 15 24 8 13 1019.3 1019.3 0.0
22/10:00pm 21.9 21.1 16.2 70 3.4 ESE 15 24 8 13 1019.4 1019.4 0.0
22/09:30pm 21.9 21.6 16.4 71 3.3 SE 13 20 7 11 1019.3 1019.3 0.0
22/09:00pm 21.8 21.7 16.1 70 3.4 SE 11 19 6 10 1019.3 1019.3 0.0
22/08:30pm 21.8 21.4 16.3 71 3.3 ESE 13 22 7 12 1019.3 1019.3 0.0
22/08:00pm 21.8 21.4 16.3 71 3.3 ESE 13 22 7 12 1019.0 1019.0 0.0
22/07:30pm 21.8 21.7 17.0 74 2.9 SE 13 20 7 11 1018.6 1018.6 0.0
22/07:00pm 21.8 21.1 16.5 72 3.2 SE 15 24 8 13 1018.1 1018.1 0.0
22/06:30pm 21.6 21.4 16.6 73 3.0 SE 13 20 7 11 1017.6 1017.6 0.0
22/06:00pm 21.6 20.8 16.1 71 3.3 ESE 15 26 8 14 1017.3 1017.3 0.0
22/05:30pm 22.0 21.8 16.7 72 3.2 SE 13 26 7 14 1017.0 1017.0 0.0
22/05:00pm 22.2 21.5 15.3 65 4.1 SE 13 19 7 10 1016.9 1016.9 0.0
22/04:30pm 22.6 21.3 15.7 65 4.1 ESE 17 24 9 13 1016.7 1016.7 0.0
22/04:00pm 22.5 21.6 15.8 66 4.0 E 15 22 8 12 1016.6 1016.6 0.0
22/03:30pm 22.2 21.9 16.5 70 3.5 SE 13 24 7 13 1016.7 1016.7 0.0
22/03:00pm 22.6 22.4 16.6 69 3.7 SE 13 24 7 13 1016.7 1016.7 0.0
22/02:30pm 22.4 21.6 16.2 68 3.8 SE 15 24 8 13 1017.1 1017.1 0.0
22/02:00pm 22.6 22.4 16.6 69 3.7 SE 13 19 7 10 1017.5 1017.5 0.0
22/01:30pm 22.8 22.6 16.6 68 3.8 SSE 13 24 7 13 1017.9 1017.9 0.0
22/01:00pm 22.8 22.6 16.6 68 3.8 SE 13 20 7 11 1018.2 1018.2 0.0
22/12:30pm 22.7 22.6 16.0 66 4.0 SE 11 24 6 13 1018.6 1018.6 0.0
22/12:00pm 21.5 19.8 17.1 76 2.7 S 22 28 12 15 1019.2 1019.2 0.0
22/11:30am 21.4 19.9 17.6 79 2.3 S 22 28 12 15 1019.5 1019.5 0.0
22/11:00am 22.6 22.9 16.9 70 3.5 SSE 11 20 6 11 1019.9 1019.9 0.0
22/10:30am 22.8 22.6 16.8 69 3.7 SE 13 20 7 11 1020.2 1020.2 0.0
22/10:00am 21.9 22.7 17.3 75 2.8 SE 9 15 5 8 1020.4 1020.4 0.0
22/09:30am 22.1 22.5 17.2 74 3.0 SE 11 19 6 10 1020.4 1020.4 0.0
22/09:00am 21.8 21.9 17.4 76 2.7 SE 13 20 7 11 1020.3 1020.3 0.0
22/08:30am 20.5 21.0 17.5 83 1.8 WSW 11 17 6 9 1020.2 1020.2 0.0
22/08:00am 20.1 20.1 17.3 84 1.7 WSW 13 22 7 12 1019.8 1019.8 0.0
22/07:30am 20.1 21.3 16.9 82 1.9 SSW 6 11 3 6 1019.6 1019.6 0.0
22/07:00am 19.8 20.4 16.8 83 1.8 SSW 9 13 5 7 1019.3 1019.3 0.0
22/06:30am 19.3 19.0 16.5 84 1.7 WSW 13 15 7 8 1019.0 1019.0 0.0
22/06:00am 19.4 18.9 16.8 85 1.6 W 15 19 8 10 1018.5 1018.5 0.0
22/05:30am 19.0 18.7 16.4 85 1.6 WSW 13 20 7 11 1018.0 1018.0 0.0
22/05:00am 19.5 18.9 16.7 84 1.7 WSW 15 20 8 11 1017.9 1017.9 0.0
22/04:30am 19.0 18.2 16.2 84 1.7 W 15 17 8 9 1017.6 1017.6 0.0
22/04:00am 19.1 18.8 16.5 85 1.6 W 13 17 7 9 1017.5 1017.5 0.0
22/03:30am 19.4 19.9 16.6 84 1.7 WSW 9 13 5 7 1017.4 1017.4 0.0
22/03:00am 20.0 20.2 15.8 77 2.5 SSW 9 13 5 7 1017.4 1017.4 0.0
22/02:30am 21.7 21.8 16.4 72 3.2 SE 11 17 6 9 1017.4 1017.4 0.0
22/02:00am 21.6 21.4 16.6 73 3.0 SE 13 19 7 10 1017.5 1017.5 0.0
22/01:30am 21.7 22.0 17.1 75 2.8 SSE 11 17 6 9 1017.8 1017.8 0.0
22/01:00am 21.7 21.8 16.6 73 3.1 SE 11 17 6 9 1017.9 1017.9 0.0
22/12:30am 21.7 21.8 16.4 72 3.2 SE 11 17 6 9 1017.9 1017.9 0.0
22/12:00am 21.6 21.6 16.3 72 3.2 SE 11 15 6 8 1018.1 1018.1 0.0
 
Date/Time
EST
Temp
°C
App
Temp
°C
Dew
Point
°C
Rel
Hum
%
Delta-T
°C
Wind Press
QNH
hPa
Press
MSL
hPa
Rain since
9am
mm
Dir  Spd
km/h
Gust
km/h
Spd
kts
Gust
kts
21/11:30pm 21.6 21.8 16.8 74 2.9 SE 11 19 6 10 1018.3 1018.3 0.0
21/11:00pm 21.5 21.6 16.5 73 3.0 ESE 11 17 6 9 1018.4 1018.4 0.0
21/10:30pm 21.5 21.6 16.5 73 3.0 SE 11 19 6 10 1018.5 1018.5 0.0
21/10:00pm 21.5 21.7 16.7 74 2.9 ESE 11 19 6 10 1018.6 1018.6 0.0
21/09:30pm 21.5 21.6 16.5 73 3.0 SE 11 19 6 10 1018.6 1018.6 0.0
21/09:00pm 21.5 21.8 16.0 71 3.3 ESE 9 17 5 9 1018.4 1018.4 0.0
21/08:30pm 21.5 20.7 16.0 71 3.3 ESE 15 20 8 11 1018.1 1018.1 0.0
21/08:00pm 21.5 20.1 15.6 69 3.5 ESE 17 22 9 12 1017.8 1017.8 0.0
21/07:30pm 21.4 20.2 16.1 72 3.2 ESE 17 24 9 13 1017.5 1017.5 0.0
21/07:00pm 21.3 20.6 16.3 73 3.0 ESE 15 22 8 12 1017.4 1017.4 0.0
21/06:30pm 21.3 20.8 16.0 72 3.2 SE 13 20 7 11 1017.1 1017.1 0.0
21/06:00pm 21.4 20.9 15.9 71 3.3 ESE 13 24 7 13 1016.8 1016.8 0.0
21/05:30pm 21.5 20.8 16.5 73 3.0 SE 15 24 8 13 1016.6 1016.6 0.0
21/05:00pm 22.1 21.9 16.6 71 3.3 SE 13 20 7 11 1016.3 1016.3 0.0
21/04:30pm 21.9 21.5 16.2 70 3.4 SE 13 20 7 11 1016.0 1016.0 0.0
21/04:00pm 22.0 21.6 16.3 70 3.4 SE 13 24 7 13 1015.7 1015.7 0.0
21/03:30pm 22.1 21.8 16.4 70 3.5 ESE 13 20 7 11 1015.7 1015.7 0.0
21/03:00pm 22.3 21.9 16.1 68 3.7 ESE 13 20 7 11 1015.8 1015.8 0.0
21/02:30pm 22.6 22.6 16.2 67 3.9 SE 11 19 6 10 1016.0 1016.0 0.0
21/02:00pm 22.3 22.2 15.9 67 3.8 SE 11 17 6 9 1016.3 1016.3 0.0
21/01:30pm 22.2 21.7 15.8 67 3.8 SE 13 19 7 10 1016.6 1016.6 0.0
21/01:00pm 22.6 22.5 15.9 66 4.0 SE 11 17 6 9 1016.9 1016.9 0.0
21/12:30pm 21.8 22.3 16.5 72 3.2 SSE 9 13 5 7 1017.3 1017.3 0.0
21/12:00pm 21.1 20.4 16.5 75 2.8 S 15 20 8 11 1018.0 1018.0 0.0
21/11:30am 20.8 18.4 16.4 76 2.7 S 24 28 13 15 1018.4 1018.4 0.0
21/11:00am 20.7 18.7 16.5 77 2.5 S 22 26 12 14 1018.9 1018.9 0.0
21/10:30am 20.0 18.3 16.2 79 2.3 SSW 20 26 11 14 1019.0 1019.0 0.0
21/10:00am 19.7 18.0 15.8 78 2.3 SSW 19 20 10 11 1018.7 1018.7 0.0
21/09:30am 19.5 18.1 15.6 78 2.3 SSW 17 20 9 11 1018.5 1018.5 0.0
21/09:00am 19.2 17.3 15.1 77 2.4 SW 19 20 10 11 1018.4 1018.4 0.0
21/08:30am 19.0 17.2 14.5 75 2.6 SW 17 20 9 11 1018.1 1018.1 0.0
21/08:00am 19.0 17.6 14.5 75 2.6 WSW 15 19 8 10 1017.7 1017.7 0.0
21/07:30am 18.7 17.3 14.4 76 2.5 SW 15 17 8 9 1017.4 1017.4 0.0
21/07:00am 18.3 17.1 15.0 81 1.9 SW 15 17 8 9 1017.1 1017.1 0.0
21/06:30am 18.6 17.0 14.9 79 2.2 SW 17 19 9 10 1016.6 1016.6 0.0
21/06:00am 18.3 17.2 15.2 82 1.8 SW 15 17 8 9 1016.4 1016.4 0.0
21/05:30am 18.6 16.9 14.7 78 2.3 SW 17 19 9 10 1016.1 1016.1 0.0
21/05:00am 18.6 16.7 14.1 75 2.6 SW 17 19 9 10 1015.9 1015.9 0.0
21/04:30am 18.3 16.4 14.2 77 2.4 WSW 17 19 9 10 1016.1 1016.1 0.0
21/04:00am 18.1 16.6 14.2 78 2.2 WSW 15 19 8 10 1016.1 1016.1 0.0
21/03:30am 18.6 16.2 14.5 77 2.4 SW 20 22 11 12 1016.4 1016.4 0.0
21/03:00am 18.4 16.0 13.7 74 2.7 SW 19 20 10 11 1016.3 1016.3 0.0
21/02:30am 18.6 16.3 14.1 75 2.6 SW 19 20 10 11 1016.4 1016.4 0.0
21/02:00am 18.3 16.3 13.8 75 2.6 WSW 17 19 9 10 1016.5 1016.5 0.0
21/01:30am 18.7 16.4 14.0 74 2.7 WSW 19 20 10 11 1016.7 1016.7 0.0
21/01:00am 18.7 16.7 14.0 74 2.7 SW 17 20 9 11 1016.9 1016.9 0.0
21/12:30am 19.0 16.8 14.3 74 2.7 WSW 19 20 10 11 1017.0 1017.0 0.0
21/12:00am 19.4 18.9 13.8 70 3.2 WSW 9 15 5 8 1016.9 1016.9 0.0
 
Date/Time
EST
Temp
°C
App
Temp
°C
Dew
Point
°C
Rel
Hum
%
Delta-T
°C
Wind Press
QNH
hPa
Press
MSL
hPa
Rain since
9am
mm
Dir  Spd
km/h
Gust
km/h
Spd
kts
Gust
kts
20/11:30pm 21.5 20.6 14.9 66 3.9 E 13 17 7 9 1017.2 1017.2 0.0
20/11:00pm 21.6 20.6 14.7 65 4.1 ENE 13 17 7 9 1017.3 1017.3 0.0
20/10:30pm 21.6 20.0 14.0 62 4.4 E 15 20 8 11 1017.6 1017.6 0.0
20/10:00pm 21.5 20.5 14.6 65 4.0 ESE 13 20 7 11 1017.7 1017.7 0.0
20/09:30pm 21.4 20.3 14.3 64 4.1 ESE 13 20 7 11 1017.7 1017.7 0.0
20/09:00pm 21.4 20.9 14.8 66 3.9 ESE 11 17 6 9 1017.6 1017.6 0.0
20/08:30pm 21.4 21.1 14.3 64 4.1 ESE 9 19 5 10 1017.4 1017.4 0.0
20/08:00pm 21.1 20.5 14.5 66 3.9 SE 11 20 6 11 1017.0 1017.0 0.0
20/07:30pm 21.1 19.8 14.7 67 3.8 ESE 15 22 8 12 1016.7 1016.7 0.0
20/07:00pm 21.2 20.2 14.6 66 3.9 ESE 13 19 7 10 1016.3 1016.3 0.0
20/06:30pm 21.2 20.1 14.4 65 4.0 SE 13 24 7 13 1015.9 1015.9 0.0
20/06:00pm 21.2 19.8 14.6 66 3.9 SE 15 24 8 13 1015.8 1015.8 0.0
20/05:30pm 21.3 19.6 13.7 62 4.4 ESE 15 22 8 12 1015.7 1015.7 0.0
20/05:00pm 21.5 20.3 13.9 62 4.4 ESE 13 24 7 13 1015.5 1015.5 0.0
20/04:30pm 21.5 20.0 13.2 59 4.8 SE 13 22 7 12 1015.4 1015.4 0.0
20/04:00pm 21.3 19.1 12.2 56 5.1 SE 15 26 8 14 1015.5 1015.5 0.0
20/03:30pm 21.4 19.1 10.6 50 5.9 SSE 13 24 7 13 1015.4 1015.4 0.0
20/03:00pm 21.6 18.9 10.4 49 6.1 SE 15 24 8 13 1015.6 1015.6 0.0
20/02:30pm 22.1 19.3 8.6 42 7.1 ESE 13 20 7 11 1015.8 1015.8 0.0
20/02:00pm 21.7 19.8 7.5 40 7.3 S 7 11 4 6 1016.3 1016.3 0.0
20/01:30pm 21.2 18.4 5.1 35 7.9 S 9 15 5 8 1016.5 1016.5 0.0
20/01:00pm 20.9 17.1 4.0 33 8.1 S 13 19 7 10 1016.9 1016.9 0.0
20/12:30pm 20.7 15.6 3.9 33 8.1 S 20 24 11 13 1017.2 1017.2 0.0
20/12:00pm 20.6 14.7 3.8 33 8.0 S 24 30 13 16 1017.7 1017.7 0.0
20/11:30am 20.5 14.5 3.3 32 8.1 S 24 28 13 15 1018.0 1018.0 0.0
20/11:00am 20.5 14.3 4.1 34 7.9 S 26 30 14 16 1018.3 1018.3 0.0
20/10:30am 20.4 13.6 3.2 32 8.1 S 28 33 15 18 1018.5 1018.5 0.0
20/10:00am 20.2 14.5 4.7 36 7.5 SSW 24 35 13 19 1018.6 1018.6 0.0
20/09:30am 19.3 14.1 5.4 40 6.8 SSW 22 28 12 15 1018.4 1018.4 0.0
20/09:00am 18.9 13.8 6.1 43 6.3 SW 22 26 12 14 1018.2 1018.2 0.0
20/08:30am 20.6 12.9 2.4 30 8.5 S 32 39 17 21 1018.0 1018.0 0.0
20/08:00am 20.7 11.6 2.0 29 8.6 S 39 44 21 24 1017.6 1017.6 0.0
20/07:30am 20.7 11.5 1.1 27 8.9 S 39 46 21 25 1017.5 1017.5 0.0

Other Formats:

Comma delimited format used in spreadsheet applications
http://www.bom.gov.au/fwo/IDQ60801/IDQ60801.94295.axf

JavaScript Object Notation format (JSON) in row-major order
http://www.bom.gov.au/fwo/IDQ60801/IDQ60801.94295.json